Weather History for Sidney-Richland, MT

Change the Weather History Date:

Wednesday, April 16, 2014

  Actual Average Record
Temperature  
Mean Temperature 30 °F -  
Max Temperature 35 °F 60 °F 87 °F (1913)
Min Temperature 26 °F 28 °F 11 °F (1961)
Degree Days  
Heating Degree Days 34    
Moisture  
Dew Point 20 °F    
Average Humidity 66    
Maximum Humidity 74    
Minimum Humidity 52    
Precipitation  
Precipitation 0.00 in - - ()
Sea Level Pressure  
Sea Level Pressure 30.08 in    
Wind  
Wind Speed 10 mph (ENE)    
Max Wind Speed 14 mph    
Max Gust Speed 20 mph    
Visibility 10 miles    
Events      
Averages and records for this station are not official NWS values.
T = Trace of Precipitation, MM = Missing Value Source: NWS Daily Summary

Daily Weather History Graph

Daily Weather History Graph

Search for Another Location

Airport:

Trip Planner

Search our weather history database for the weather conditions in past years. The results will help you decide how hot, cold, wet, or windy it might be!

Date:

Astronomy

Apr. 16, 2014 Rise Set
Actual Time 6:05 AM MDT 7:48 PM MDT
Civil Twilight 5:33 AM MDT 8:20 PM MDT
Nautical Twilight 4:53 AM MDT 9:00 PM MDT
Astronomical Twilight 4:10 AM MDT 9:44 PM MDT
Moon 9:41 PM MDT (4/16) 6:50 AM MDT (4/16)
Length of Visible Light 14h 47m
Length of Day
13h 42m
Full, 98% of the Moon is Illuminated
Apr 16
Full
Apr 22
Last Quarter
Apr 29
New
May 6
First Quarter
May 14
Full

Hourly Weather History & Observations

Time (MDT) Temp. Windchill Dew Point Humidity Pressure Visibility Wind Dir Wind Speed Gust Speed Precip Events Conditions
12:15 AM 35.6 °F 29.2 °F 19.4 °F 52% 29.73 in 10.0 mi East 8.1 mph - N/A   Clear
12:35 AM 35.6 °F 27.5 °F 19.4 °F 52% 29.75 in 10.0 mi East 11.5 mph - N/A   Clear
12:55 AM 35.6 °F 28.0 °F 19.4 °F 52% 29.77 in 10.0 mi NE 10.4 mph - N/A   Clear
1:15 AM 33.8 °F 24.8 °F 19.4 °F 56% 29.79 in 10.0 mi NNE 12.7 mph - N/A   Clear
1:35 AM 32.0 °F 23.6 °F 19.4 °F 60% 29.80 in 10.0 mi NE 10.4 mph 19.6 mph N/A   Clear
1:55 AM 30.2 °F 19.8 °F 19.4 °F 64% 29.81 in 10.0 mi NE 13.8 mph - N/A   Clear
2:15 AM 30.2 °F 20.8 °F 19.4 °F 64% 29.81 in 10.0 mi NE 11.5 mph - N/A   Clear
2:35 AM 30.2 °F 20.8 °F 19.4 °F 64% 29.83 in 10.0 mi NE 11.5 mph 18.4 mph N/A   Clear
2:55 AM 28.4 °F 18.5 °F 19.4 °F 69% 29.84 in 10.0 mi NE 11.5 mph - N/A   Clear
3:15 AM 28.4 °F 18.5 °F 19.4 °F 69% 29.85 in 10.0 mi NE 11.5 mph - N/A   Clear
3:35 AM 28.4 °F 19.7 °F 19.4 °F 69% 29.87 in 10.0 mi NE 9.2 mph - N/A   Clear
3:55 AM 28.4 °F 18.5 °F 19.4 °F 69% 29.89 in 10.0 mi ENE 11.5 mph - N/A   Clear
4:15 AM 26.6 °F 17.5 °F 19.4 °F 74% 29.90 in 10.0 mi NE 9.2 mph - N/A   Clear
4:35 AM 26.6 °F 18.2 °F 19.4 °F 74% 29.91 in 10.0 mi NE 8.1 mph - N/A   Clear
4:55 AM 26.6 °F 18.2 °F 19.4 °F 74% 29.92 in 10.0 mi NE 8.1 mph - N/A   Clear
5:15 AM 26.6 °F 19.1 °F 19.4 °F 74% 29.93 in 10.0 mi NE 6.9 mph - N/A   Clear
5:35 AM 26.6 °F 18.2 °F 19.4 °F 74% 29.94 in 10.0 mi NE 8.1 mph - N/A   Clear
5:55 AM 26.6 °F 17.5 °F 19.4 °F 74% 29.96 in 10.0 mi ENE 9.2 mph - N/A   Partly Cloudy
6:15 AM 28.4 °F 21.2 °F 21.2 °F 74% 29.97 in 10.0 mi ENE 6.9 mph - N/A   Mostly Cloudy
6:35 AM 28.4 °F 19.1 °F 21.2 °F 74% 29.99 in 10.0 mi ENE 10.4 mph - N/A   Overcast
6:55 AM 28.4 °F 18.5 °F 21.2 °F 74% 30.00 in 10.0 mi NE 11.5 mph - N/A   Overcast
7:15 AM 28.4 °F 18.5 °F 21.2 °F 74% 30.01 in 10.0 mi ENE 11.5 mph - N/A   Overcast
7:35 AM 28.4 °F 18.5 °F 21.2 °F 74% 30.02 in 10.0 mi ENE 11.5 mph - N/A   Overcast
7:55 AM 28.4 °F 18.5 °F 21.2 °F 74% 30.03 in 10.0 mi ENE 11.5 mph - N/A   Overcast
8:15 AM 28.4 °F 18.5 °F 19.4 °F 69% 30.05 in 10.0 mi NE 11.5 mph - N/A   Overcast
8:35 AM 28.4 °F 19.1 °F 19.4 °F 69% 30.05 in 10.0 mi ENE 10.4 mph - N/A   Overcast
8:55 AM 28.4 °F 19.1 °F 21.2 °F 74% 30.06 in 10.0 mi ENE 10.4 mph - N/A   Overcast
9:15 AM 28.4 °F 19.7 °F 19.4 °F 69% 30.07 in 10.0 mi ENE 9.2 mph - N/A   Overcast
9:35 AM 28.4 °F 19.1 °F 19.4 °F 69% 30.07 in 10.0 mi NE 10.4 mph - N/A   Overcast
9:55 AM 28.4 °F 19.7 °F 19.4 °F 69% 30.09 in 10.0 mi ENE 9.2 mph - N/A   Overcast
10:15 AM 28.4 °F 19.7 °F 19.4 °F 69% 30.10 in 10.0 mi NE 9.2 mph - N/A   Overcast
10:35 AM 30.2 °F 21.3 °F 19.4 °F 64% 30.11 in 10.0 mi ENE 10.4 mph - N/A   Overcast
10:55 AM 30.2 °F 22.6 °F 19.4 °F 64% 30.12 in 10.0 mi ENE 8.1 mph - N/A   Overcast
11:15 AM 30.2 °F 21.3 °F 21.2 °F 69% 30.12 in 10.0 mi ENE 10.4 mph - N/A   Overcast
11:35 AM 30.2 °F 21.9 °F 19.4 °F 64% 30.13 in 10.0 mi East 9.2 mph - N/A   Overcast
12:15 PM 30.2 °F 22.6 °F 19.4 °F 64% 30.13 in 10.0 mi East 8.1 mph - N/A   Overcast
12:35 PM 30.2 °F 21.9 °F 19.4 °F 64% 30.14 in 10.0 mi ENE 9.2 mph - N/A   Overcast
12:55 PM 30.2 °F 21.3 °F 19.4 °F 64% 30.15 in 10.0 mi NE 10.4 mph - N/A   Overcast
1:15 PM 30.2 °F 22.6 °F 19.4 °F 64% 30.16 in 10.0 mi ENE 8.1 mph - N/A   Overcast
1:35 PM 30.2 °F 21.9 °F 19.4 °F 64% 30.16 in 10.0 mi East 9.2 mph - N/A   Overcast
1:55 PM 30.2 °F 22.6 °F 21.2 °F 69% 30.16 in 10.0 mi NE 8.1 mph - N/A   Overcast
2:15 PM 32.0 °F 24.8 °F 21.2 °F 64% 30.17 in 10.0 mi ENE 8.1 mph - N/A   Overcast
2:35 PM 32.0 °F 24.2 °F 21.2 °F 64% 30.17 in 10.0 mi NE 9.2 mph - N/A   Overcast
2:55 PM 33.8 °F 25.8 °F 19.4 °F 56% 30.18 in 10.0 mi East 10.4 mph - N/A   Overcast
3:15 PM 32.0 °F 25.6 °F 19.4 °F 60% 30.18 in 10.0 mi ENE 6.9 mph - N/A   Overcast
3:35 PM 33.8 °F 26.4 °F 19.4 °F 56% 30.18 in 10.0 mi East 9.2 mph - N/A   Overcast
3:55 PM 33.8 °F 25.8 °F 19.4 °F 56% 30.19 in 10.0 mi ENE 10.4 mph - N/A   Overcast
4:15 PM 32.0 °F 23.6 °F 19.4 °F 60% 30.19 in 10.0 mi ENE 10.4 mph - N/A   Overcast
4:35 PM 32.0 °F 24.2 °F 19.4 °F 60% 30.19 in 10.0 mi ENE 9.2 mph - N/A   Overcast
4:55 PM 32.0 °F 23.0 °F 19.4 °F 60% 30.19 in 10.0 mi ENE 11.5 mph - N/A   Overcast
5:15 PM 30.2 °F 20.8 °F 19.4 °F 64% 30.20 in 10.0 mi ENE 11.5 mph - N/A   Overcast
5:55 PM 30.2 °F 21.3 °F 19.4 °F 64% 30.21 in 10.0 mi East 10.4 mph - N/A   Overcast
6:15 PM 30.2 °F 20.8 °F 19.4 °F 64% 30.22 in 10.0 mi ENE 11.5 mph - N/A   Overcast
6:35 PM 30.2 °F 21.3 °F 19.4 °F 64% 30.22 in 10.0 mi ENE 10.4 mph - N/A   Overcast
6:55 PM 30.2 °F 20.8 °F 19.4 °F 64% 30.22 in 10.0 mi ENE 11.5 mph - N/A   Overcast
7:15 PM 30.2 °F 21.9 °F 19.4 °F 64% 30.22 in 10.0 mi East 9.2 mph - N/A   Overcast
7:55 PM 30.2 °F 20.8 °F 19.4 °F 64% 30.23 in 10.0 mi East 11.5 mph - N/A   Overcast
8:15 PM 30.2 °F 22.6 °F 19.4 °F 64% 30.23 in 10.0 mi East 8.1 mph - N/A   Overcast
8:35 PM 30.2 °F 21.3 °F 19.4 °F 64% 30.24 in 10.0 mi East 10.4 mph - N/A   Overcast
8:55 PM 28.4 °F 17.5 °F 19.4 °F 69% 30.24 in 10.0 mi ESE 13.8 mph - N/A   Overcast
9:15 PM 28.4 °F 19.7 °F 19.4 °F 69% 30.25 in 10.0 mi ESE 9.2 mph - N/A   Overcast
9:35 PM 28.4 °F 20.4 °F 19.4 °F 69% 30.25 in 10.0 mi ESE 8.1 mph - N/A   Overcast
9:55 PM 28.4 °F 19.1 °F 19.4 °F 69% 30.25 in 10.0 mi ESE 10.4 mph - N/A   Overcast
10:15 PM 28.4 °F 19.7 °F 19.4 °F 69% 30.26 in 10.0 mi SE 9.2 mph - N/A   Overcast
10:35 PM 28.4 °F 20.4 °F 19.4 °F 69% 30.25 in 10.0 mi SE 8.1 mph - N/A   Overcast
10:55 PM 28.4 °F 21.2 °F 19.4 °F 69% 30.25 in 10.0 mi ESE 6.9 mph - N/A   Overcast
11:15 PM 28.4 °F 20.4 °F 19.4 °F 69% 30.25 in 10.0 mi SE 8.1 mph - N/A   Overcast
11:35 PM 28.4 °F 19.7 °F 19.4 °F 69% 30.25 in 10.0 mi ESE 9.2 mph - N/A   Overcast
11:55 PM 28.4 °F 20.4 °F 19.4 °F 69% 30.25 in 10.0 mi ESE 8.1 mph - N/A   Overcast